Time;durP1;ratioP1;P1;durP2;ratioP2;P2;SDS_P1;SDS_P2;PMS_P1;PMS_P2;Temp;Humidity;BMP_temperature;BMP_pressure;BME280_temperature;BME280_humidity;BME280_pressure;Samples;Min_cycle;Max_cycle;Signal;HPM_P1;HPM_P2
2022/01/13 00:02:23;;;;;;;10.40;4.75;;;3.80;82.70;;;;;;6053736;23;20346;-70
2022/01/13 00:04:57;;;;;;;8.63;4.60;;;3.80;82.70;;;;;;6055488;23;20438;-70
2022/01/13 00:07:24;;;;;;;10.10;4.25;;;3.80;82.70;;;;;;6054222;23;20397;-70
2022/01/13 00:10:07;;;;;;;5.53;2.67;;;3.80;82.70;;;;;;3372400;23;10001799;-72
2022/01/13 00:12:41;;;;;;;10.32;4.45;;;3.80;82.70;;;;;;4382203;23;10001162;-69
2022/01/13 00:15:25;;;;;;;10.38;4.57;;;3.70;82.80;;;;;;6055682;23;20531;-72
2022/01/13 00:18:02;;;;;;;8.63;4.45;;;3.70;82.60;;;;;;6056847;23;20105;-71
2022/01/13 00:20:57;;;;;;;10.52;3.97;;;3.80;82.80;;;;;;6055290;23;20030;-71
2022/01/13 00:23:43;;;;;;;7.72;4.38;;;3.70;82.80;;;;;;6055203;23;20278;-71
2022/01/13 00:26:19;;;;;;;8.88;4.82;;;3.70;82.80;;;;;;6079259;23;20102;-71
2022/01/13 00:28:49;;;;;;;9.27;3.70;;;3.70;82.80;;;;;;6057193;23;20441;-71
2022/01/13 00:31:23;;;;;;;10.52;4.97;;;3.70;82.90;;;;;;6056847;23;20097;-72
2022/01/13 00:33:54;;;;;;;8.27;4.85;;;3.80;83.00;;;;;;6041033;23;20410;-71
2022/01/13 00:36:21;;;;;;;;;;;3.70;83.10;;;;;;6057777;23;20027;-72
2022/01/13 00:38:48;;;;;;;9.50;4.78;;;3.70;83.10;;;;;;6054431;23;20028;-70
2022/01/13 00:41:15;;;;;;;9.07;4.30;;;3.70;83.10;;;;;;6049871;23;20026;-71
2022/01/13 00:43:45;;;;;;;9.90;3.67;;;3.70;83.20;;;;;;6053387;23;20350;-72
2022/01/13 00:46:19;;;;;;;8.53;4.30;;;3.70;83.30;;;;;;6056640;23;20027;-71
2022/01/13 00:48:47;;;;;;;7.68;3.78;;;3.80;83.30;;;;;;6055995;23;20098;-71
2022/01/13 00:51:14;;;;;;;13.52;4.43;;;3.80;83.30;;;;;;6056619;23;20033;-71
2022/01/13 00:53:41;;;;;;;8.35;4.68;;;3.80;83.20;;;;;;6053854;23;20023;-71
2022/01/13 00:56:08;;;;;;;7.90;4.15;;;3.70;83.20;;;;;;6055739;23;20490;-69
2022/01/13 00:58:37;;;;;;;8.10;3.80;;;3.70;83.30;;;;;;6056348;23;20046;-69
2022/01/13 01:01:05;;;;;;;10.20;4.32;;;3.70;83.30;;;;;;6054261;23;20029;-73
2022/01/13 01:03:33;;;;;;;7.25;3.58;;;3.70;83.40;;;;;;6055729;23;20022;-71
2022/01/13 01:06:03;;;;;;;9.80;5.15;;;3.70;83.40;;;;;;6053936;23;20030;-71
2022/01/13 01:08:31;;;;;;;;;;;3.70;83.50;;;;;;6056146;23;20367;-69
2022/01/13 01:11:00;;;;;;;5.93;3.22;;;3.70;83.50;;;;;;6053595;23;19929;-72
2022/01/13 01:13:30;;;;;;;7.72;4.07;;;3.70;83.50;;;;;;6055288;23;20054;-71
2022/01/13 01:16:00;;;;;;;8.35;4.47;;;3.70;83.40;;;;;;6055257;23;20038;-71
2022/01/13 01:18:34;;;;;;;;;;;3.70;83.40;;;;;;6055032;23;20033;-71
2022/01/13 01:24:26;;;;;;;8.57;3.83;;;3.80;83.50;;;;;;5965604;24;20463;-71
2022/01/13 01:26:56;;;;;;;8.00;3.97;;;3.70;83.50;;;;;;6035839;23;20025;-71
2022/01/13 01:29:27;;;;;;;8.30;3.88;;;3.80;83.40;;;;;;6052650;23;20031;-71
2022/01/13 01:31:54;;;;;;;;;;;3.80;83.40;;;;;;6053325;23;20026;-72
2022/01/13 01:34:38;;;;;;;6.72;3.72;;;3.70;83.40;;;;;;6053344;23;19921;-71
2022/01/13 01:37:13;;;;;;;7.32;4.57;;;3.70;83.50;;;;;;6053727;23;20037;-71
2022/01/13 01:39:41;;;;;;;8.10;3.92;;;3.70;83.50;;;;;;6050347;23;20547;-71
2022/01/13 01:42:08;;;;;;;8.13;3.63;;;3.70;83.60;;;;;;6050306;23;20031;-71
2022/01/13 01:44:39;;;;;;;8.13;3.72;;;3.70;83.70;;;;;;6050637;23;20026;-71
2022/01/13 01:47:08;;;;;;;7.85;3.50;;;3.70;83.60;;;;;;6053611;23;20046;-71
2022/01/13 01:49:39;;;;;;;11.40;4.70;;;3.70;83.70;;;;;;6054339;23;20304;-71
2022/01/13 01:52:09;;;;;;;10.20;3.85;;;3.70;83.70;;;;;;6054328;23;20026;-71
2022/01/13 01:54:36;;;;;;;6.63;2.95;;;3.80;83.70;;;;;;6054208;23;20484;-71
2022/01/13 01:57:04;;;;;;;6.93;3.88;;;3.80;83.60;;;;;;6053035;23;20023;-71
2022/01/13 01:59:33;;;;;;;8.57;4.15;;;3.70;83.50;;;;;;6055222;23;20500;-72
2022/01/13 02:02:01;;;;;;;8.35;4.47;;;3.70;83.60;;;;;;6050526;23;20027;-71
2022/01/13 02:04:30;;;;;;;8.55;4.47;;;3.70;83.60;;;;;;6053233;23;20102;-71
2022/01/13 02:06:59;;;;;;;7.35;3.58;;;3.70;83.60;;;;;;6021820;23;20033;-71
2022/01/13 02:09:51;;;;;;;11.80;4.20;;;3.70;83.60;;;;;;4784626;23;10001981;-71
2022/01/13 02:12:30;;;;;;;7.60;3.88;;;3.70;83.70;;;;;;2502284;23;10002068;-71
2022/01/13 02:15:04;;;;;;;7.80;4.30;;;3.70;83.70;;;;;;6054260;23;20034;-71
2022/01/13 02:17:34;;;;;;;6.32;3.20;;;3.70;83.70;;;;;;6054282;23;20264;-71
2022/01/13 02:20:04;;;;;;;7.95;4.45;;;3.70;83.80;;;;;;6052443;23;20474;-70
2022/01/13 02:22:33;;;;;;;8.80;4.33;;;3.70;83.90;;;;;;6052883;23;20023;-71
2022/01/13 02:25:00;;;;;;;7.85;3.92;;;3.70;84.00;;;;;;6052562;23;20118;-71
2022/01/13 02:27:30;;;;;;;7.65;3.90;;;3.70;83.90;;;;;;6052508;23;20034;-71
2022/01/13 02:29:57;;;;;;;8.90;3.83;;;3.70;83.90;;;;;;6053307;23;20101;-70
2022/01/13 02:32:24;;;;;;;9.02;3.83;;;3.70;83.80;;;;;;6076154;23;20417;-70
2022/01/13 02:34:51;;;;;;;8.10;4.00;;;3.70;83.80;;;;;;6052509;23;20054;-71
2022/01/13 02:37:18;;;;;;;7.05;3.83;;;3.70;83.60;;;;;;6056652;23;20050;-71
2022/01/13 02:39:46;;;;;;;9.15;4.85;;;3.70;83.70;;;;;;6055078;23;20027;-71
2022/01/13 02:42:14;;;;;;;7.20;3.08;;;3.70;83.60;;;;;;6054336;23;20033;-71
2022/01/13 02:44:49;;;;;;;9.57;4.30;;;3.70;83.60;;;;;;6052674;23;20019;-70
2022/01/13 02:47:36;;;;;;;10.50;4.78;;;3.70;83.50;;;;;;6052303;23;20361;-71
2022/01/13 02:50:04;;;;;;;7.22;4.07;;;3.70;83.50;;;;;;6052917;23;20041;-70
2022/01/13 02:52:31;;;;;;;9.60;4.43;;;3.70;83.50;;;;;;6052103;23;20023;-72
2022/01/13 02:55:00;;;;;;;8.85;3.97;;;3.70;83.50;;;;;;6052849;23;20125;-70
2022/01/13 02:57:27;;;;;;;7.50;3.85;;;3.70;83.40;;;;;;6052051;23;20390;-70
2022/01/13 02:59:54;;;;;;;9.20;3.78;;;3.70;83.50;;;;;;6050762;23;20380;-72
2022/01/13 03:02:28;;;;;;;7.38;3.85;;;3.70;83.50;;;;;;6049331;23;20023;-71
2022/01/13 03:04:55;;;;;;;7.95;3.55;;;3.70;83.40;;;;;;6050412;23;20053;-71
2022/01/13 03:07:22;;;;;;;8.27;4.20;;;3.70;83.30;;;;;;6050586;23;20022;-71
2022/01/13 03:09:49;;;;;;;7.03;4.20;;;3.70;83.30;;;;;;6050182;23;20109;-71
2022/01/13 03:12:17;;;;;;;7.22;3.58;;;3.80;83.30;;;;;;6051031;23;20029;-71
2022/01/13 03:14:44;;;;;;;6.97;4.05;;;3.70;83.10;;;;;;6050041;23;20117;-71
2022/01/13 03:17:11;;;;;;;8.45;4.38;;;3.70;82.70;;;;;;6050537;23;20369;-71
2022/01/13 03:19:38;;;;;;;6.20;3.85;;;3.70;82.60;;;;;;6047978;23;20026;-72
2022/01/13 03:22:05;;;;;;;10.52;3.95;;;3.70;82.40;;;;;;6048774;23;20102;-71
2022/01/13 03:24:32;;;;;;;6.38;3.40;;;3.70;82.10;;;;;;6049578;23;20027;-71
2022/01/13 03:27:02;;;;;;;7.28;3.97;;;3.70;81.80;;;;;;6050797;23;20038;-71
2022/01/13 03:29:31;;;;;;;7.95;3.45;;;3.70;81.80;;;;;;6051395;23;20086;-71
2022/01/13 03:31:58;;;;;;;5.45;3.30;;;3.70;81.70;;;;;;6050890;23;20677;-71
2022/01/13 03:34:27;;;;;;;6.95;3.20;;;3.70;81.80;;;;;;6052121;23;20457;-70
2022/01/13 03:36:54;;;;;;;8.60;3.95;;;3.70;81.80;;;;;;6043537;23;20485;-69
2022/01/13 03:39:21;;;;;;;6.55;3.42;;;3.70;81.80;;;;;;6072236;23;20023;-71
2022/01/13 03:41:48;;;;;;;7.78;3.33;;;3.70;81.70;;;;;;6054632;23;20065;-70
2022/01/13 03:44:18;;;;;;;6.57;3.40;;;3.70;81.70;;;;;;6054476;23;20516;-70
2022/01/13 03:46:46;;;;;;;7.60;2.97;;;3.70;81.60;;;;;;6054251;23;20107;-71
2022/01/13 03:49:13;;;;;;;7.07;2.88;;;3.70;81.70;;;;;;6054988;23;20026;-70
2022/01/13 03:52:27;;;;;;;5.78;3.58;;;3.70;81.60;;;;;;6055299;23;20164;-71
2022/01/13 03:55:30;;;;;;;6.78;2.85;;;3.70;81.60;;;;;;6054121;23;20432;-71
2022/01/13 03:58:37;;;;;;;5.10;2.67;;;3.70;81.50;;;;;;6053306;23;20027;-71
2022/01/13 04:01:41;;;;;;;5.50;3.05;;;3.60;81.40;;;;;;6027136;23;20019;-71
2022/01/13 04:04:09;;;;;;;6.82;2.72;;;3.60;81.40;;;;;;6053393;23;20031;-69
2022/01/13 04:06:42;;;;;;;6.35;2.72;;;3.60;81.50;;;;;;6054885;23;20029;-72
2022/01/13 04:10:02;;;;;;;4.50;2.05;;;3.60;81.40;;;;;;2023671;23;10022844;-69
2022/01/13 04:12:32;;;;;;;5.70;2.92;;;3.60;81.50;;;;;;5635639;23;10000749;-72
2022/01/13 04:15:02;;;;;;;4.47;2.67;;;3.60;81.50;;;;;;6053889;23;20409;-71
2022/01/13 04:17:29;;;;;;;4.53;2.30;;;3.70;81.20;;;;;;6054785;23;20106;-71
2022/01/13 04:19:58;;;;;;;5.32;2.63;;;3.60;81.30;;;;;;6051130;23;20038;-70
2022/01/13 04:22:26;;;;;;;5.40;2.67;;;3.60;81.30;;;;;;6054486;23;20022;-71
2022/01/13 04:24:54;;;;;;;5.57;2.95;;;3.60;81.30;;;;;;6053677;23;20023;-71
2022/01/13 04:27:24;;;;;;;5.38;2.33;;;3.60;81.30;;;;;;6056211;23;20454;-70
2022/01/13 04:30:11;;;;;;;3.90;2.00;;;3.70;81.30;;;;;;6056826;23;21805;-70
2022/01/13 04:32:38;;;;;;;3.95;2.13;;;3.70;81.30;;;;;;6054984;23;20099;-71
2022/01/13 04:35:08;;;;;;;3.42;2.08;;;3.60;81.40;;;;;;6056319;23;20037;-70
2022/01/13 04:37:35;;;;;;;5.28;2.28;;;3.70;81.40;;;;;;6052596;23;20037;-71
2022/01/13 04:40:02;;;;;;;7.07;2.25;;;3.60;81.30;;;;;;6051976;23;20027;-71
2022/01/13 04:42:35;;;;;;;4.53;2.42;;;3.60;81.30;;;;;;6052188;23;20023;-71
2022/01/13 04:45:03;;;;;;;3.55;2.25;;;3.60;81.40;;;;;;6051354;23;20043;-71
2022/01/13 04:47:30;;;;;;;6.10;2.45;;;3.60;81.40;;;;;;6052291;23;20019;-71
2022/01/13 04:49:57;;;;;;;4.90;2.22;;;3.60;81.40;;;;;;6052959;23;20530;-71
2022/01/13 04:52:25;;;;;;;3.67;2.08;;;3.60;81.50;;;;;;6052602;23;20389;-69
2022/01/13 04:54:52;;;;;;;5.00;2.20;;;3.60;81.50;;;;;;6074335;23;20030;-70
2022/01/13 04:57:19;;;;;;;4.32;1.92;;;3.70;81.30;;;;;;6052550;23;20026;-70
2022/01/13 04:59:47;;;;;;;3.40;2.03;;;3.70;81.40;;;;;;6052273;23;20027;-69
2022/01/13 05:02:16;;;;;;;4.13;2.08;;;3.70;81.30;;;;;;6049648;23;20023;-70
2022/01/13 05:04:43;;;;;;;5.88;2.72;;;3.70;81.30;;;;;;6050811;23;20457;-71
2022/01/13 05:07:10;;;;;;;5.15;1.88;;;3.70;81.40;;;;;;6051708;23;20029;-71
2022/01/13 05:09:38;;;;;;;6.75;2.70;;;3.60;81.40;;;;;;6051934;23;20405;-70
2022/01/13 05:12:06;;;;;;;4.53;2.53;;;3.60;81.50;;;;;;6051694;23;20022;-71
2022/01/13 05:14:33;;;;;;;3.33;1.83;;;3.60;81.50;;;;;;6051044;23;20037;-71
2022/01/13 05:17:06;;;;;;;3.42;2.05;;;3.60;81.50;;;;;;6052827;23;20029;-71
2022/01/13 05:19:37;;;;;;;6.78;2.60;;;3.60;81.40;;;;;;6052740;23;20479;-71
2022/01/13 05:22:16;;;;;;;5.20;2.58;;;3.70;81.40;;;;;;6052908;23;20030;-72
2022/01/13 05:24:48;;;;;;;4.22;2.17;;;3.70;81.50;;;;;;6053473;23;20026;-69
2022/01/13 05:27:16;;;;;;;5.32;2.63;;;3.60;81.50;;;;;;6053393;23;20029;-70
2022/01/13 05:29:43;;;;;;;2.70;1.83;;;3.60;81.60;;;;;;6053185;23;20145;-71
2022/01/13 05:32:09;;;;;;;5.50;2.38;;;3.60;81.70;;;;;;6053570;23;20023;-70
2022/01/13 05:34:37;;;;;;;8.23;2.72;;;3.60;81.70;;;;;;6074605;23;20037;-70
2022/01/13 05:37:04;;;;;;;5.32;2.60;;;3.60;81.60;;;;;;6050393;23;20530;-70
2022/01/13 05:39:31;;;;;;;6.22;2.90;;;3.60;81.60;;;;;;6051969;23;20025;-71
2022/01/13 05:41:59;;;;;;;4.70;2.80;;;3.70;81.60;;;;;;6054235;23;20023;-69
2022/01/13 05:44:26;;;;;;;9.02;2.83;;;3.60;81.50;;;;;;6054120;23;20047;-71
2022/01/13 05:46:53;;;;;;;4.88;2.65;;;3.60;81.60;;;;;;6053247;23;20050;-70
2022/01/13 05:49:20;;;;;;;4.95;2.63;;;3.70;81.50;;;;;;6053826;23;20050;-71
2022/01/13 05:51:47;;;;;;;8.13;3.65;;;3.60;81.50;;;;;;6054265;23;20031;-70
2022/01/13 05:54:14;;;;;;;7.32;3.10;;;3.60;81.50;;;;;;6052880;23;20022;-70
2022/01/13 05:56:41;;;;;;;6.93;3.33;;;3.60;81.60;;;;;;6053065;23;20110;-72
2022/01/13 05:59:09;;;;;;;6.60;3.85;;;3.60;81.60;;;;;;6053813;23;20134;-69
2022/01/13 06:01:36;;;;;;;5.60;3.40;;;3.50;81.60;;;;;;6051365;23;20027;-71
2022/01/13 06:04:09;;;;;;;7.32;3.68;;;3.60;81.60;;;;;;5746428;23;10002331;-73
2022/01/13 06:06:36;;;;;;;5.80;2.53;;;3.50;81.50;;;;;;831574;23;10001948;-72
2022/01/13 06:09:03;;;;;;;7.10;3.08;;;3.50;81.50;;;;;;6053913;23;20027;-72
2022/01/13 06:11:37;;;;;;;5.82;2.95;;;3.50;81.60;;;;;;6053597;23;20142;-69
2022/01/13 06:14:04;;;;;;;7.18;3.83;;;3.60;81.60;;;;;;6053471;23;20031;-70
2022/01/13 06:16:33;;;;;;;8.85;3.72;;;3.60;81.50;;;;;;6052334;23;20038;-70
2022/01/13 06:19:00;;;;;;;6.85;3.53;;;3.60;81.60;;;;;;6051221;23;20029;-72
2022/01/13 06:21:29;;;;;;;6.80;3.85;;;3.50;81.50;;;;;;6050813;23;20026;-72
2022/01/13 06:23:57;;;;;;;8.00;4.05;;;3.50;81.60;;;;;;6050860;23;20031;-72
2022/01/13 06:26:23;;;;;;;6.68;4.07;;;3.50;81.60;;;;;;6050584;23;20031;-71
2022/01/13 06:28:50;;;;;;;7.35;3.42;;;3.50;81.60;;;;;;6050017;23;20063;-69
2022/01/13 06:31:17;;;;;;;6.93;3.88;;;3.50;81.70;;;;;;6051316;23;20392;-71
2022/01/13 06:33:46;;;;;;;6.18;3.33;;;3.50;81.80;;;;;;6051210;23;20023;-71
2022/01/13 06:36:12;;;;;;;7.00;3.67;;;3.50;81.80;;;;;;6051078;23;20027;-70
2022/01/13 06:38:39;;;;;;;8.70;4.28;;;3.50;81.80;;;;;;6049909;23;20513;-71
2022/01/13 06:41:06;;;;;;;7.95;3.90;;;3.50;81.80;;;;;;6051571;23;20046;-71
2022/01/13 06:43:36;;;;;;;8.05;4.07;;;3.50;81.80;;;;;;6051088;23;20027;-71
2022/01/13 06:46:03;;;;;;;8.80;4.65;;;3.50;81.90;;;;;;6053844;23;20022;-72
2022/01/13 06:48:30;;;;;;;8.35;4.97;;;3.50;82.00;;;;;;6056157;23;20453;-69
2022/01/13 06:50:59;;;;;;;8.82;4.47;;;3.50;82.00;;;;;;6051222;23;20137;-70
2022/01/13 06:53:26;;;;;;;8.27;4.20;;;3.50;82.10;;;;;;6051696;23;20358;-71
2022/01/13 06:55:53;;;;;;;9.23;4.40;;;3.50;82.10;;;;;;6051946;23;20269;-72
2022/01/13 06:58:20;;;;;;;10.02;5.47;;;3.50;82.00;;;;;;6052941;23;20026;-69
2022/01/13 07:00:47;;;;;;;9.90;4.97;;;3.50;82.00;;;;;;6051516;23;20023;-70
2022/01/13 07:03:14;;;;;;;7.53;4.30;;;3.50;82.20;;;;;;6052288;23;20130;-70
2022/01/13 07:05:41;;;;;;;11.10;5.63;;;3.50;82.20;;;;;;6041033;23;20026;-72
2022/01/13 07:08:11;;;;;;;15.05;5.65;;;3.50;82.20;;;;;;6073802;23;20098;-71
2022/01/13 07:10:38;;;;;;;10.48;4.15;;;3.50;82.20;;;;;;6053034;23;20027;-71
2022/01/13 07:13:05;;;;;;;11.57;5.35;;;3.50;82.30;;;;;;6053137;23;20027;-71
2022/01/13 07:15:32;;;;;;;12.02;5.63;;;3.50;82.20;;;;;;6053034;23;20532;-69
2022/01/13 07:17:59;;;;;;;10.70;5.57;;;3.50;82.20;;;;;;6052951;23;20029;-71
2022/01/13 07:20:27;;;;;;;10.73;4.78;;;3.50;82.20;;;;;;6052612;23;20417;-70
2022/01/13 07:22:54;;;;;;;8.50;5.28;;;3.50;82.20;;;;;;6052171;23;20454;-71
2022/01/13 07:25:22;;;;;;;10.77;5.18;;;3.50;82.20;;;;;;6052233;23;20031;-71
2022/01/13 07:27:50;;;;;;;12.60;6.38;;;3.50;82.20;;;;;;6052767;23;20130;-71
2022/01/13 07:30:17;;;;;;;12.40;6.57;;;3.50;82.30;;;;;;6053025;23;20489;-69
2022/01/13 07:32:44;;;;;;;12.30;6.82;;;3.40;82.20;;;;;;6051869;23;20087;-71
2022/01/13 07:35:12;;;;;;;11.23;6.40;;;3.50;82.30;;;;;;6051944;23;20130;-72
2022/01/13 07:37:40;;;;;;;13.40;6.05;;;3.50;82.30;;;;;;6052125;23;20025;-71
2022/01/13 07:40:08;;;;;;;16.15;7.10;;;3.50;82.40;;;;;;6050723;23;20026;-71
2022/01/13 07:42:41;;;;;;;10.70;6.45;;;3.50;82.40;;;;;;6052279;23;20050;-71
2022/01/13 07:45:09;;;;;;;15.00;6.93;;;3.50;82.40;;;;;;6052580;23;20053;-70
2022/01/13 07:47:36;;;;;;;10.98;5.70;;;3.50;82.50;;;;;;6052353;23;20345;-71
2022/01/13 07:50:04;;;;;;;12.00;7.20;;;3.50;82.50;;;;;;6053902;23;20429;-71
2022/01/13 07:52:31;;;;;;;13.18;6.97;;;3.50;82.40;;;;;;6051306;23;20026;-72
2022/01/13 07:54:58;;;;;;;11.50;7.15;;;3.50;82.40;;;;;;6052512;23;20110;-71
2022/01/13 07:57:25;;;;;;;11.18;6.45;;;3.50;82.50;;;;;;6050984;23;20027;-70
2022/01/13 07:59:53;;;;;;;15.82;6.90;;;3.50;82.60;;;;;;6050591;23;20050;-69
2022/01/13 08:02:20;;;;;;;14.27;6.50;;;3.50;82.60;;;;;;6050348;23;20105;-70
2022/01/13 08:04:49;;;;;;;13.57;7.03;;;3.50;82.60;;;;;;6072223;23;20033;-72
2022/01/13 08:07:16;;;;;;;12.25;6.45;;;3.50;82.60;;;;;;6050556;23;20026;-70
2022/01/13 08:09:43;;;;;;;16.70;8.15;;;3.50;82.60;;;;;;6049926;23;20019;-69
2022/01/13 08:12:10;;;;;;;13.55;7.63;;;3.50;82.60;;;;;;6050585;23;20093;-71
2022/01/13 08:14:47;;;;;;;16.90;7.80;;;3.50;82.70;;;;;;3969724;23;10022057;-71
2022/01/13 08:19:45;;;;;;;12.65;7.60;;;3.50;82.70;;;;;;3128603;23;10002001;-71
2022/01/13 08:20:06;;;;;;;15.57;8.98;;;3.50;82.70;;;;;;6047626;23;20067;-71
2022/01/13 08:22:33;;;;;;;15.57;8.30;;;3.50;82.80;;;;;;6051925;23;20164;-71
2022/01/13 08:25:00;;;;;;;17.17;8.82;;;3.50;82.80;;;;;;6052509;23;20034;-70
2022/01/13 08:27:28;;;;;;;13.43;7.82;;;3.50;82.80;;;;;;6053573;23;20139;-72
2022/01/13 08:29:55;;;;;;;17.83;8.20;;;3.50;82.90;;;;;;6054706;23;20054;-71
2022/01/13 08:32:24;;;;;;;15.52;8.00;;;3.50;82.90;;;;;;6055713;23;20106;-72
2022/01/13 08:34:51;;;;;;;13.65;7.93;;;3.50;82.90;;;;;;6052795;23;20462;-71
2022/01/13 08:37:18;;;;;;;12.77;7.47;;;3.50;82.90;;;;;;6077063;23;20029;-71
2022/01/13 08:39:45;;;;;;;11.45;6.80;;;3.50;83.00;;;;;;6052984;23;20022;-69
2022/01/13 08:42:13;;;;;;;18.30;7.88;;;3.50;83.00;;;;;;6056597;23;20027;-70
2022/01/13 08:44:40;;;;;;;16.58;7.88;;;3.50;83.00;;;;;;6057243;23;20041;-70
2022/01/13 08:47:07;;;;;;;18.35;8.50;;;3.50;83.00;;;;;;6057922;23;20046;-71
2022/01/13 08:49:36;;;;;;;18.08;7.70;;;3.60;82.90;;;;;;6057159;23;20098;-70
2022/01/13 08:52:04;;;;;;;15.95;7.43;;;3.60;82.90;;;;;;6057003;23;20042;-70
2022/01/13 08:54:31;;;;;;;12.25;6.78;;;3.60;82.80;;;;;;6056473;23;20325;-71
2022/01/13 08:56:59;;;;;;;15.32;7.40;;;3.60;82.90;;;;;;6054063;23;20053;-71
2022/01/13 08:59:25;;;;;;;14.95;7.38;;;3.60;83.00;;;;;;6054170;23;20026;-71
2022/01/13 09:01:53;;;;;;;16.08;7.30;;;3.60;82.90;;;;;;6053162;23;20521;-71
2022/01/13 09:04:20;;;;;;;15.65;7.68;;;3.60;82.90;;;;;;6054032;23;20023;-71
2022/01/13 09:06:48;;;;;;;13.20;6.95;;;3.60;83.00;;;;;;6053615;23;20023;-72
2022/01/13 09:09:15;;;;;;;15.95;7.32;;;3.70;83.00;;;;;;6053849;23;20025;-72
2022/01/13 09:11:43;;;;;;;14.73;7.05;;;3.70;82.80;;;;;;6053409;23;20030;-72
2022/01/13 09:14:10;;;;;;;17.50;8.07;;;3.70;82.90;;;;;;6054619;23;20033;-71
2022/01/13 09:16:44;;;;;;;13.27;7.45;;;3.70;82.80;;;;;;6053313;23;20114;-72
2022/01/13 09:19:12;;;;;;;11.82;6.85;;;3.70;82.90;;;;;;6054599;23;20027;-72
2022/01/13 09:21:41;;;;;;;15.48;8.10;;;3.70;82.80;;;;;;6053220;23;20022;-72
2022/01/13 09:24:12;;;;;;;13.48;6.75;;;3.70;82.80;;;;;;6054632;23;20090;-71
2022/01/13 09:26:40;;;;;;;14.23;6.93;;;3.70;82.80;;;;;;6054462;23;20030;-71
2022/01/13 09:29:09;;;;;;;15.27;6.90;;;3.70;82.80;;;;;;6053185;23;20027;-71
2022/01/13 09:31:38;;;;;;;11.63;6.70;;;3.70;82.80;;;;;;6054763;23;20290;-71
2022/01/13 09:34:06;;;;;;;13.32;6.45;;;3.70;82.70;;;;;;6056656;23;20022;-70
2022/01/13 09:36:34;;;;;;;13.10;6.20;;;3.70;82.70;;;;;;6054389;23;20048;-72
2022/01/13 09:39:04;;;;;;;13.50;6.68;;;3.70;82.70;;;;;;6051219;23;20022;-72
2022/01/13 09:41:34;;;;;;;14.73;6.63;;;3.70;82.70;;;;;;6051468;23;20034;-70
2022/01/13 09:44:04;;;;;;;11.47;6.00;;;3.70;82.60;;;;;;6054811;23;20030;-71
2022/01/13 09:46:31;;;;;;;15.90;6.97;;;3.70;82.50;;;;;;6055028;23;20172;-70
2022/01/13 09:49:02;;;;;;;15.55;6.93;;;3.70;82.50;;;;;;6053905;23;20113;-71
2022/01/13 09:51:30;;;;;;;15.40;7.75;;;3.70;82.60;;;;;;6054335;23;20481;-71
2022/01/13 09:53:57;;;;;;;13.00;7.35;;;3.70;82.50;;;;;;6053079;23;20292;-70
2022/01/13 09:56:24;;;;;;;12.27;6.50;;;3.70;82.50;;;;;;6054871;23;20050;-72
2022/01/13 09:58:53;;;;;;;14.15;6.60;;;3.70;82.60;;;;;;6054742;23;20275;-71
2022/01/13 10:01:20;;;;;;;13.45;7.18;;;3.70;82.50;;;;;;6052978;23;20022;-70
2022/01/13 10:03:48;;;;;;;13.38;6.75;;;3.80;82.50;;;;;;5994638;23;20030;-73
2022/01/13 10:06:19;;;;;;;10.25;6.05;;;3.80;82.50;;;;;;4343297;23;10023470;-71
2022/01/13 10:08:50;;;;;;;16.27;7.43;;;3.80;82.40;;;;;;2922692;23;10001992;-72
2022/01/13 10:11:28;;;;;;;14.30;7.07;;;3.80;82.40;;;;;;6055043;23;20027;-71
2022/01/13 10:14:05;;;;;;;11.15;5.78;;;3.80;82.40;;;;;;6054329;23;20532;-71
2022/01/13 10:16:32;;;;;;;14.18;6.85;;;3.80;82.50;;;;;;6056639;23;20031;-72
2022/01/13 10:19:00;;;;;;;14.27;6.75;;;3.80;82.40;;;;;;6056797;23;20082;-71
2022/01/13 10:21:31;;;;;;;13.55;6.70;;;3.90;82.30;;;;;;6055360;23;20030;-72
2022/01/13 10:24:06;;;;;;;14.00;6.78;;;3.80;82.30;;;;;;6056113;23;20462;-71
2022/01/13 10:26:34;;;;;;;14.38;6.47;;;3.80;82.30;;;;;;6053380;23;20394;-72
2022/01/13 10:29:01;;;;;;;11.77;5.90;;;3.80;82.30;;;;;;6054802;23;20022;-72
2022/01/13 10:31:46;;;;;;;14.00;6.43;;;3.80;82.30;;;;;;6055994;23;20023;-72
2022/01/13 10:34:19;;;;;;;13.00;6.65;;;3.90;82.30;;;;;;6052723;23;20023;-72
2022/01/13 10:37:11;;;;;;;9.98;5.30;;;3.90;82.30;;;;;;6053299;23;20406;-71
2022/01/13 10:39:51;;;;;;;11.55;5.65;;;3.90;82.20;;;;;;6051869;23;20210;-71
2022/01/13 10:42:45;;;;;;;13.05;6.13;;;3.90;82.10;;;;;;6053428;23;20521;-70
2022/01/13 10:45:17;;;;;;;12.77;5.65;;;3.90;82.10;;;;;;6049402;23;20453;-70
2022/01/13 10:47:52;;;;;;;12.60;6.55;;;3.90;82.20;;;;;;6052431;23;20514;-71
2022/01/13 10:50:20;;;;;;;12.13;6.40;;;4.00;82.20;;;;;;6053606;23;20027;-71
2022/01/13 10:52:49;;;;;;;12.35;5.97;;;4.00;82.10;;;;;;6056279;23;20049;-72
2022/01/13 10:55:19;;;;;;;13.55;5.78;;;4.00;82.10;;;;;;6057050;23;20022;-71
2022/01/13 10:57:46;;;;;;;12.88;5.65;;;4.00;82.00;;;;;;6056449;23;20022;-70
2022/01/13 11:00:21;;;;;;;9.75;5.95;;;4.00;82.10;;;;;;6054284;23;20027;-71
2022/01/13 11:02:58;;;;;;;14.73;6.25;;;3.90;82.00;;;;;;6055685;23;20140;-71
2022/01/13 11:05:27;;;;;;;11.25;5.70;;;3.90;82.10;;;;;;6045106;23;20117;-72
2022/01/13 11:07:56;;;;;;;11.20;5.63;;;4.00;82.10;;;;;;6056464;23;20030;-70
2022/01/13 11:10:23;;;;;;;10.25;5.95;;;4.00;82.10;;;;;;6056996;23;20354;-72
2022/01/13 11:12:56;;;;;;;11.55;6.03;;;4.00;82.00;;;;;;6053194;23;20374;-71
2022/01/13 11:15:24;;;;;;;13.90;6.68;;;4.00;82.00;;;;;;6054138;23;20023;-71
2022/01/13 11:17:53;;;;;;;12.05;6.90;;;4.00;82.00;;;;;;6054086;23;20034;-71
2022/01/13 11:20:22;;;;;;;14.20;6.03;;;4.00;82.00;;;;;;6053703;23;20347;-71
2022/01/13 11:22:52;;;;;;;9.90;5.30;;;4.00;82.10;;;;;;6054340;23;20050;-71
2022/01/13 11:25:23;;;;;;;13.15;6.38;;;4.00;82.00;;;;;;6054505;23;20126;-71
2022/01/13 11:27:51;;;;;;;10.13;5.45;;;4.10;82.00;;;;;;5996559;23;20030;-71
2022/01/13 11:30:20;;;;;;;12.63;5.63;;;4.10;82.00;;;;;;5997822;23;20034;-71
2022/01/13 11:32:49;;;;;;;14.82;6.78;;;4.10;82.10;;;;;;5996797;23;20023;-72
2022/01/13 11:35:20;;;;;;;14.52;6.93;;;4.10;82.00;;;;;;5998167;23;20218;-70
2022/01/13 11:37:47;;;;;;;10.73;5.97;;;4.10;82.00;;;;;;5997131;23;20032;-70
2022/01/13 11:40:40;;;;;;;12.52;6.13;;;4.10;82.00;;;;;;5997567;23;20072;-70
2022/01/13 11:43:19;;;;;;;11.98;5.88;;;4.10;82.10;;;;;;5996965;23;20027;-72
2022/01/13 11:45:47;;;;;;;11.27;5.47;;;4.10;82.10;;;;;;5996735;23;20135;-72
2022/01/13 11:48:21;;;;;;;12.45;6.50;;;4.10;81.90;;;;;;5997620;23;20404;-70
2022/01/13 11:50:52;;;;;;;17.05;7.35;;;4.10;81.80;;;;;;5995278;23;20358;-72
2022/01/13 11:53:31;;;;;;;11.85;6.45;;;4.10;81.90;;;;;;5998802;23;20106;-70
2022/01/13 11:56:01;;;;;;;12.13;6.32;;;4.10;81.90;;;;;;6000988;23;20087;-72
2022/01/13 11:58:39;;;;;;;15.73;6.32;;;4.10;82.00;;;;;;6001460;23;20023;-72
2022/01/13 12:01:16;;;;;;;12.90;6.78;;;4.10;81.90;;;;;;5997960;23;20480;-72
2022/01/13 12:03:48;;;;;;;11.27;6.25;;;4.10;81.90;;;;;;6000894;23;20439;-71
2022/01/13 12:06:37;;;;;;;10.82;6.28;;;4.10;81.90;;;;;;6000860;23;20024;-71
2022/01/13 12:09:39;;;;;;;10.15;4.65;;;4.10;81.80;;;;;;2502812;23;10023856;-71
2022/01/13 12:12:09;;;;;;;13.05;5.55;;;4.10;81.90;;;;;;4344224;23;10001087;-71
2022/01/13 12:14:42;;;;;;;13.75;6.78;;;4.20;81.90;;;;;;6000308;23;20060;-71
2022/01/13 12:17:23;;;;;;;10.25;5.38;;;4.10;81.90;;;;;;5998858;23;20080;-71
2022/01/13 12:19:58;;;;;;;10.45;4.88;;;4.10;81.80;;;;;;5999714;23;20034;-72
2022/01/13 12:22:41;;;;;;;11.43;6.20;;;4.20;81.90;;;;;;6001025;23;20042;-71
2022/01/13 12:25:09;;;;;;;12.77;5.38;;;4.20;81.80;;;;;;6000287;23;20510;-70
2022/01/13 12:27:49;;;;;;;11.73;5.95;;;4.20;81.70;;;;;;6051029;23;20033;-71
2022/01/13 12:30:18;;;;;;;10.73;5.22;;;4.20;81.80;;;;;;6057896;23;20029;-71
2022/01/13 12:32:48;;;;;;;11.55;5.72;;;4.20;81.80;;;;;;6079019;23;20022;-71
2022/01/13 12:35:28;;;;;;;13.00;6.03;;;4.20;81.80;;;;;;6057828;23;20031;-73
2022/01/13 12:38:01;;;;;;;10.57;6.13;;;4.20;81.80;;;;;;6057515;23;20031;-72
2022/01/13 12:40:33;;;;;;;12.93;5.47;;;4.20;81.80;;;;;;6058048;23;20421;-72
2022/01/13 12:43:21;;;;;;;10.05;5.80;;;4.20;81.80;;;;;;6055377;23;20023;-72
2022/01/13 12:45:48;;;;;;;9.75;6.18;;;4.20;81.80;;;;;;6054358;23;20031;-71
2022/01/13 12:48:15;;;;;;;12.20;5.00;;;4.20;81.80;;;;;;6055330;23;20033;-70
2022/01/13 12:50:44;;;;;;;10.52;5.78;;;4.20;81.80;;;;;;6053798;23;20418;-70
2022/01/13 12:53:15;;;;;;;14.57;5.88;;;4.20;81.70;;;;;;6053448;23;20029;-71
2022/01/13 12:55:46;;;;;;;12.20;5.47;;;4.20;81.80;;;;;;6053664;23;20057;-71
2022/01/13 12:58:14;;;;;;;13.63;5.53;;;4.20;81.80;;;;;;6053212;23;20098;-71
2022/01/13 13:00:41;;;;;;;13.63;6.20;;;4.20;81.80;;;;;;6048160;23;20087;-70
2022/01/13 13:03:09;;;;;;;11.60;6.32;;;4.30;81.90;;;;;;6047168;23;20454;-71
2022/01/13 13:05:47;;;;;;;13.00;5.90;;;4.30;81.90;;;;;;6053825;23;20035;-71
2022/01/13 13:08:18;;;;;;;11.77;6.03;;;4.30;81.90;;;;;;6045759;23;20064;-70
2022/01/13 13:10:49;;;;;;;9.52;5.72;;;4.40;81.80;;;;;;6064775;23;20469;-70
2022/01/13 13:13:19;;;;;;;10.95;5.35;;;4.40;81.70;;;;;;6051588;23;20074;-70
2022/01/13 13:15:54;;;;;;;11.32;6.00;;;4.40;81.50;;;;;;6052024;23;20050;-70